createdAt,value
2023-03-16T00:00:49.222Z,81.63
2023-03-16T00:06:00.337Z,80.26
2023-03-16T00:11:07.815Z,80.51
2023-03-16T00:16:17.492Z,80.47
2023-03-16T00:21:25.209Z,80.66
2023-03-16T00:26:32.087Z,80.85
2023-03-16T00:31:38.512Z,81.90
2023-03-16T00:36:46.409Z,82.04
2023-03-16T00:41:52.555Z,80.96
2023-03-16T00:46:59.059Z,81.85
2023-03-16T00:52:08.867Z,81.41
2023-03-16T00:57:19.108Z,80.76
2023-03-16T01:02:28.148Z,81.96
2023-03-16T01:07:36.664Z,82.10
2023-03-16T01:12:45.585Z,81.78
2023-03-16T01:17:52.580Z,79.91
2023-03-16T01:23:00.946Z,81.58
2023-03-16T01:28:07.549Z,82.46
2023-03-16T01:33:14.073Z,82.18
2023-03-16T01:38:22.477Z,81.91
2023-03-16T01:43:33.621Z,82.50
2023-03-16T01:48:46.353Z,82.44
2023-03-16T01:53:59.176Z,82.69
2023-03-16T01:59:13.654Z,82.42
2023-03-16T02:04:48.512Z,82.33
2023-03-16T02:10:03.893Z,82.58
2023-03-16T02:15:12.340Z,82.40
2023-03-16T02:20:34.991Z,80.76
2023-03-16T02:25:51.987Z,81.74
2023-03-16T02:31:00.422Z,82.18
2023-03-16T02:36:07.809Z,82.04
2023-03-16T02:41:17.689Z,81.10
2023-03-16T02:46:36.130Z,81.43
2023-03-16T02:51:43.582Z,81.93
2023-03-16T02:56:50.982Z,81.73
2023-03-16T03:01:59.612Z,81.94
2023-03-16T03:07:06.544Z,82.09
2023-03-16T03:12:26.644Z,81.54
2023-03-16T03:17:37.805Z,81.10
2023-03-16T03:22:46.385Z,81.23
2023-03-16T03:27:55.541Z,82.24
2023-03-16T03:33:05.601Z,82.89
2023-03-16T03:38:11.975Z,82.66
2023-03-16T03:43:19.669Z,81.80
2023-03-16T03:48:30.485Z,82.91
2023-03-16T03:53:37.659Z,82.91
2023-03-16T03:59:16.222Z,82.73
2023-03-16T04:04:39.519Z,82.96
2023-03-16T04:10:07.858Z,83.55
2023-03-16T04:15:19.326Z,83.79
2023-03-16T04:20:38.593Z,83.25
2023-03-16T04:25:46.242Z,83.21
2023-03-16T04:30:56.511Z,83.58
2023-03-16T04:36:14.081Z,83.28
2023-03-16T04:41:21.158Z,84.20
2023-03-16T04:46:42.757Z,84.38
2023-03-16T04:51:52.247Z,84.86
2023-03-16T04:57:00.807Z,85.35
2023-03-16T05:02:26.503Z,85.54
2023-03-16T05:07:42.371Z,85.01
2023-03-16T05:12:49.691Z,84.65
2023-03-16T05:17:57.663Z,84.75
2023-03-16T05:23:09.001Z,84.74
2023-03-16T05:28:22.685Z,85.37
2023-03-16T05:33:38.980Z,85.62
2023-03-16T05:38:53.909Z,86.06
2023-03-16T05:44:12.173Z,85.86
2023-03-16T05:49:44.322Z,86.08
2023-03-16T05:55:02.265Z,85.70
2023-03-16T06:00:14.984Z,85.51
2023-03-16T06:05:28.797Z,85.61
2023-03-16T06:10:37.205Z,85.85
2023-03-16T06:15:44.518Z,85.80
2023-03-16T06:20:53.063Z,86.01
2023-03-16T06:26:02.906Z,86.10
2023-03-16T06:31:11.675Z,85.92
2023-03-16T06:36:23.162Z,86.03
2023-03-16T06:41:36.110Z,86.05
2023-03-16T06:46:42.442Z,86.20
2023-03-16T06:51:49.033Z,85.91
2023-03-16T06:56:57.455Z,85.91
2023-03-16T07:17:23.268Z,84.46
2023-03-16T07:22:32.937Z,84.46
2023-03-16T07:27:41.776Z,84.59
2023-03-16T07:32:51.489Z,84.58
2023-03-16T07:38:00.651Z,84.79
2023-03-16T07:43:07.517Z,85.30
2023-03-16T07:48:20.715Z,85.23
2023-03-16T07:53:40.332Z,84.87
2023-03-16T07:58:58.738Z,84.96
2023-03-16T08:04:08.883Z,85.07
2023-03-16T08:09:15.713Z,85.41
2023-03-16T08:14:24.097Z,85.03
2023-03-16T08:19:46.442Z,84.57
2023-03-16T08:24:52.983Z,84.06
2023-03-16T08:30:05.969Z,84.29
2023-03-16T08:35:18.237Z,84.15
2023-03-16T08:40:29.676Z,83.59
2023-03-16T08:45:39.312Z,83.16
2023-03-16T08:50:48.056Z,83.29
2023-03-16T08:55:54.953Z,83.08
2023-03-16T09:01:02.186Z,82.76
2023-03-16T09:06:13.652Z,82.19
2023-03-16T09:11:23.696Z,81.59
2023-03-16T09:16:31.383Z,81.15
2023-03-16T09:21:40.033Z,81.18
2023-03-16T09:26:46.302Z,80.46
2023-03-16T09:31:53.519Z,79.65
2023-03-16T09:37:03.057Z,78.39
2023-03-16T09:42:19.636Z,77.33
2023-03-16T09:47:31.615Z,76.39
2023-03-16T09:52:48.972Z,76.10
2023-03-16T09:57:56.532Z,75.63
2023-03-16T10:03:19.703Z,75.68
2023-03-16T10:08:33.271Z,74.65
2023-03-16T10:13:49.491Z,74.00
2023-03-16T10:19:03.970Z,74.13
2023-03-16T10:24:25.922Z,74.09
2023-03-16T10:29:37.330Z,73.80
2023-03-16T10:34:47.127Z,74.00
2023-03-16T10:39:56.701Z,74.22
2023-03-16T10:45:03.772Z,73.98
2023-03-16T10:50:21.279Z,73.83
2023-03-16T10:55:32.874Z,74.62
2023-03-16T11:00:45.986Z,74.24
2023-03-16T11:06:02.760Z,74.79
2023-03-16T11:11:17.967Z,74.72
2023-03-16T11:16:30.912Z,74.26
2023-03-16T11:21:49.912Z,73.69
2023-03-16T11:27:01.473Z,73.35
2023-03-16T11:32:15.241Z,72.54
2023-03-16T11:37:41.091Z,72.68
2023-03-16T11:43:02.598Z,72.35
2023-03-16T11:48:36.857Z,71.85
2023-03-16T12:08:00.973Z,70.46
2023-03-16T12:13:37.845Z,70.45
2023-03-16T12:18:49.331Z,71.32
2023-03-16T12:24:03.450Z,71.71
2023-03-16T12:29:21.296Z,72.17
2023-03-16T12:34:34.872Z,71.79
2023-03-16T12:40:08.175Z,70.88
2023-03-16T12:45:26.247Z,69.37
2023-03-16T12:50:33.660Z,67.75
2023-03-16T12:55:47.143Z,67.16
2023-03-16T13:01:01.376Z,66.98
2023-03-16T13:06:10.030Z,66.25
2023-03-16T13:11:18.253Z,66.04
2023-03-16T13:16:31.077Z,64.75
2023-03-16T13:21:41.509Z,64.49
2023-03-16T13:26:52.490Z,65.04
2023-03-16T13:32:02.153Z,65.00
2023-03-16T13:37:18.341Z,65.44
2023-03-16T13:42:28.741Z,65.57
2023-03-16T13:47:35.306Z,66.38
2023-03-16T13:52:44.494Z,67.29
2023-03-16T13:57:52.699Z,69.21
2023-03-16T14:03:04.636Z,69.87
2023-03-16T14:08:19.923Z,70.13
2023-03-16T14:13:38.606Z,69.36
2023-03-16T14:18:48.547Z,70.12
2023-03-16T14:23:58.678Z,69.74
2023-03-16T14:29:13.586Z,69.80
2023-03-16T14:34:32.642Z,70.36
2023-03-16T14:39:40.790Z,69.38
2023-03-16T14:44:50.094Z,69.72
2023-03-16T14:49:59.364Z,70.20
2023-03-16T14:55:13.386Z,70.34
2023-03-16T15:00:23.655Z,69.73
2023-03-16T15:05:37.256Z,70.25
2023-03-16T15:10:44.528Z,71.07
2023-03-16T15:15:52.956Z,70.61
2023-03-16T15:53:51.271Z,71.91
2023-03-16T15:59:00.731Z,71.78
2023-03-16T16:04:14.838Z,71.39
2023-03-16T16:09:23.447Z,71.89
2023-03-16T16:14:30.380Z,71.12
2023-03-16T16:19:37.017Z,71.73
2023-03-16T16:24:45.867Z,71.84
2023-03-16T16:29:52.527Z,71.63
2023-03-16T16:35:04.572Z,72.03
2023-03-16T16:40:19.395Z,71.66
2023-03-16T16:45:30.296Z,71.85
2023-03-16T16:50:37.900Z,72.04
2023-03-16T16:55:46.203Z,72.18
2023-03-16T17:00:58.303Z,72.16
2023-03-16T17:06:05.294Z,72.17
2023-03-16T17:11:23.495Z,72.52
2023-03-16T17:16:34.206Z,72.58
2023-03-16T17:21:42.462Z,72.95
2023-03-16T17:26:54.650Z,73.07
2023-03-16T17:32:06.917Z,73.03
2023-03-16T17:37:21.796Z,73.64
2023-03-16T17:42:31.101Z,74.44
2023-03-16T17:47:41.160Z,74.62
2023-03-16T17:52:50.858Z,75.22
2023-03-16T17:58:03.614Z,75.59
2023-03-16T18:03:19.426Z,75.72
2023-03-16T18:08:30.125Z,76.46
2023-03-16T18:13:42.904Z,76.45
2023-03-16T18:18:54.006Z,76.90
2023-03-16T18:24:04.096Z,76.68
2023-03-16T18:29:15.796Z,77.45
2023-03-16T18:34:30.550Z,77.37
2023-03-16T18:39:42.544Z,77.78
2023-03-16T18:44:57.527Z,78.18
2023-03-16T18:50:11.715Z,78.37
2023-03-16T18:55:24.794Z,78.79
2023-03-16T19:06:04.674Z,78.69
2023-03-16T19:11:15.335Z,78.80
2023-03-16T19:16:29.219Z,78.63
2023-03-16T19:21:41.317Z,78.79
2023-03-16T19:26:51.671Z,78.27
2023-03-16T19:32:04.267Z,77.84
2023-03-16T19:37:17.531Z,77.89
2023-03-16T19:42:37.644Z,77.27
2023-03-16T19:47:48.749Z,77.34
2023-03-16T19:53:02.571Z,77.48
2023-03-16T19:58:28.089Z,77.17
2023-03-16T20:03:45.222Z,77.49
2023-03-16T20:08:56.933Z,77.59
2023-03-16T20:14:07.092Z,77.86
2023-03-16T20:19:21.627Z,78.20
2023-03-16T20:24:38.983Z,78.43
2023-03-16T20:29:50.989Z,78.13
2023-03-16T20:35:06.662Z,78.46
2023-03-16T20:40:16.873Z,78.27
2023-03-16T20:45:32.032Z,78.56
2023-03-16T20:50:42.950Z,78.59
2023-03-16T20:55:55.214Z,78.63
2023-03-16T21:01:09.075Z,80.21
2023-03-16T21:06:26.163Z,80.54
2023-03-16T21:11:38.150Z,80.04
2023-03-16T21:16:45.447Z,80.62
2023-03-16T21:22:01.859Z,80.04
2023-03-16T21:27:09.860Z,80.14
2023-03-16T21:32:23.794Z,79.87
2023-03-16T21:37:32.485Z,81.01
2023-03-16T21:42:39.717Z,81.52
2023-03-16T21:47:47.914Z,80.77
2023-03-16T21:52:56.156Z,81.26
2023-03-16T21:58:03.434Z,80.97
2023-03-16T22:03:37.850Z,80.13
2023-03-16T22:08:55.977Z,79.93
2023-03-16T22:14:02.792Z,82.54
2023-03-16T22:19:13.753Z,82.93
2023-03-16T22:24:24.287Z,83.10
2023-03-16T22:29:36.849Z,81.58
2023-03-16T22:34:48.035Z,82.59
2023-03-16T22:39:57.760Z,82.31
2023-03-16T22:45:05.941Z,82.34
2023-03-16T22:50:17.062Z,82.42
2023-03-16T22:55:29.383Z,82.62
2023-03-16T23:00:38.455Z,82.93
2023-03-16T23:05:45.349Z,82.23
2023-03-16T23:10:54.774Z,82.07
2023-03-16T23:16:01.089Z,81.17
2023-03-16T23:21:07.768Z,81.42
2023-03-16T23:26:21.084Z,81.74
2023-03-16T23:31:28.337Z,80.97
2023-03-16T23:36:34.549Z,80.48
2023-03-16T23:41:46.656Z,81.07
2023-03-16T23:46:53.296Z,80.48
2023-03-16T23:52:02.504Z,81.02
2023-03-16T23:57:11.502Z,81.05
